sensor_id;sensor_type;location;lat;lon;timestamp;pressure;altitude;pressure_sealevel;temperature;humidity
65553;BME280;52465;51.560;14.368;2023-03-26T00:01:32;99084.81;;;12.24;66.27
65553;BME280;52465;51.560;14.368;2023-03-26T00:04:05;99096.38;;;12.36;66.38
65553;BME280;52465;51.560;14.368;2023-03-26T00:06:34;99085.22;;;12.28;66.37
65553;BME280;52465;51.560;14.368;2023-03-26T00:09:06;99074.69;;;12.21;66.63
65553;BME280;52465;51.560;14.368;2023-03-26T00:11:33;99107.06;;;12.35;66.80
65553;BME280;52465;51.560;14.368;2023-03-26T00:13:59;99102.81;;;12.34;66.54
65553;BME280;52465;51.560;14.368;2023-03-26T00:16:29;99103.59;;;12.34;66.70
65553;BME280;52465;51.560;14.368;2023-03-26T00:18:56;99099.38;;;12.33;66.73
65553;BME280;52465;51.560;14.368;2023-03-26T00:21:25;99084.75;;;12.17;66.42
65553;BME280;52465;51.560;14.368;2023-03-26T00:24:01;99084.38;;;12.14;66.56
65553;BME280;52465;51.560;14.368;2023-03-26T00:26:30;99106.41;;;12.26;66.72
65553;BME280;52465;51.560;14.368;2023-03-26T00:28:56;99103.34;;;12.23;66.57
65553;BME280;52465;51.560;14.368;2023-03-26T00:31:31;99106.84;;;12.30;66.38
65553;BME280;52465;51.560;14.368;2023-03-26T00:33:58;99094.31;;;12.25;66.63
65553;BME280;52465;51.560;14.368;2023-03-26T00:36:42;99069.38;;;12.01;66.53
65553;BME280;52465;51.560;14.368;2023-03-26T00:39:08;99104.00;;;12.31;66.35
65553;BME280;52465;51.560;14.368;2023-03-26T00:41:34;99110.44;;;12.29;66.68
65553;BME280;52465;51.560;14.368;2023-03-26T00:44:07;99092.63;;;12.17;66.27
65553;BME280;52465;51.560;14.368;2023-03-26T00:46:33;99088.41;;;12.16;66.78
65553;BME280;52465;51.560;14.368;2023-03-26T00:48:59;99102.19;;;12.25;66.75
65553;BME280;52465;51.560;14.368;2023-03-26T00:51:25;99108.84;;;12.28;66.49
65553;BME280;52465;51.560;14.368;2023-03-26T00:53:51;99104.81;;;12.25;66.28
65553;BME280;52465;51.560;14.368;2023-03-26T00:56:17;99098.75;;;12.25;66.46
65553;BME280;52465;51.560;14.368;2023-03-26T00:58:46;99110.84;;;12.26;66.72
65553;BME280;52465;51.560;14.368;2023-03-26T01:01:17;99098.09;;;12.16;66.55
65553;BME280;52465;51.560;14.368;2023-03-26T01:03:46;99111.06;;;12.24;66.47
65553;BME280;52465;51.560;14.368;2023-03-26T01:06:24;99112.66;;;12.25;66.52
65553;BME280;52465;51.560;14.368;2023-03-26T01:11:20;99118.94;;;12.24;66.55
65553;BME280;52465;51.560;14.368;2023-03-26T01:13:49;99095.25;;;12.11;66.19
65553;BME280;52465;51.560;14.368;2023-03-26T01:16:34;99084.13;;;12.02;66.21
65553;BME280;52465;51.560;14.368;2023-03-26T01:19:03;99114.66;;;12.23;66.54
65553;BME280;52465;51.560;14.368;2023-03-26T01:21:31;99122.75;;;12.22;66.74
65553;BME280;52465;51.560;14.368;2023-03-26T01:24:06;99122.75;;;12.22;66.38
65553;BME280;52465;51.560;14.368;2023-03-26T01:29:14;99119.72;;;12.18;66.66
65553;BME280;52465;51.560;14.368;2023-03-26T01:31:46;99117.69;;;12.20;66.69
65553;BME280;52465;51.560;14.368;2023-03-26T01:43:20;99100.25;;;12.06;66.25
65553;BME280;52465;51.560;14.368;2023-03-26T01:45:50;99103.88;;;12.05;66.31
65553;BME280;52465;51.560;14.368;2023-03-26T01:48:16;99088.13;;;11.98;66.75
65553;BME280;52465;51.560;14.368;2023-03-26T01:50:42;99092.56;;;11.98;66.56
65553;BME280;52465;51.560;14.368;2023-03-26T01:53:27;99112.22;;;12.15;66.64
65553;BME280;52465;51.560;14.368;2023-03-26T01:56:08;99113.44;;;12.12;66.84
65553;BME280;52465;51.560;14.368;2023-03-26T02:01:42;99100.91;;;12.14;66.37
65553;BME280;52465;51.560;14.368;2023-03-26T02:06:48;99105.34;;;12.14;66.23
65553;BME280;52465;51.560;14.368;2023-03-26T02:12:18;99095.88;;;12.13;66.54
65553;BME280;52465;51.560;14.368;2023-03-26T02:14:54;99056.75;;;11.83;66.71
65553;BME280;52465;51.560;14.368;2023-03-26T02:17:20;99088.16;;;12.05;66.53
65553;BME280;52465;51.560;14.368;2023-03-26T02:19:48;99100.69;;;12.09;66.31
65553;BME280;52465;51.560;14.368;2023-03-26T02:22:13;99095.44;;;12.09;66.51
65553;BME280;52465;51.560;14.368;2023-03-26T02:24:43;99108.34;;;12.11;66.66
65553;BME280;52465;51.560;14.368;2023-03-26T02:27:09;99112.00;;;12.10;66.62
65553;BME280;52465;51.560;14.368;2023-03-26T02:29:36;99085.06;;;11.95;66.35
65553;BME280;52465;51.560;14.368;2023-03-26T02:34:48;99113.59;;;12.11;66.67
65553;BME280;52465;51.560;14.368;2023-03-26T02:37:15;99077.81;;;11.90;66.47
65553;BME280;52465;51.560;14.368;2023-03-26T02:39:51;99116.22;;;12.11;66.18
65553;BME280;52465;51.560;14.368;2023-03-26T02:42:16;99103.88;;;12.05;66.63
65553;BME280;52465;51.560;14.368;2023-03-26T02:44:42;99112.00;;;12.10;66.27
65553;BME280;52465;51.560;14.368;2023-03-26T02:47:07;99100.66;;;12.03;66.29
65553;BME280;52465;51.560;14.368;2023-03-26T02:49:33;99119.81;;;12.03;66.85
65553;BME280;52465;51.560;14.368;2023-03-26T02:51:59;99112.75;;;12.04;66.55
65553;BME280;52465;51.560;14.368;2023-03-26T02:54:25;99111.34;;;12.01;66.54
65553;BME280;52465;51.560;14.368;2023-03-26T02:56:50;99103.84;;;11.98;66.42
65553;BME280;52465;51.560;14.368;2023-03-26T02:59:16;99122.88;;;12.07;66.54
65553;BME280;52465;51.560;14.368;2023-03-26T03:01:44;99118.38;;;12.01;66.40
65553;BME280;52465;51.560;14.368;2023-03-26T03:04:10;99122.06;;;12.06;66.71
65553;BME280;52465;51.560;14.368;2023-03-26T03:06:39;99104.22;;;11.95;66.60
65553;BME280;52465;51.560;14.368;2023-03-26T03:09:08;99123.06;;;12.05;66.38
65553;BME280;52465;51.560;14.368;2023-03-26T03:11:33;99108.66;;;11.95;66.33
65553;BME280;52465;51.560;14.368;2023-03-26T03:14:00;99086.63;;;11.82;66.46
65553;BME280;52465;51.560;14.368;2023-03-26T03:16:29;99093.72;;;11.88;66.68
65553;BME280;52465;51.560;14.368;2023-03-26T03:18:54;99122.25;;;12.05;66.50
65553;BME280;52465;51.560;14.368;2023-03-26T03:21:26;99122.66;;;12.02;66.44
65553;BME280;52465;51.560;14.368;2023-03-26T03:23:53;99113.34;;;11.99;66.29
65553;BME280;52465;51.560;14.368;2023-03-26T03:26:23;99111.97;;;12.03;66.76
65553;BME280;52465;51.560;14.368;2023-03-26T03:28:53;99113.53;;;11.98;66.40
65553;BME280;52465;51.560;14.368;2023-03-26T03:31:20;99109.69;;;11.94;66.68
65553;BME280;52465;51.560;14.368;2023-03-26T03:33:46;99126.88;;;12.03;66.65
65553;BME280;52465;51.560;14.368;2023-03-26T03:36:13;99126.88;;;12.03;66.59
65553;BME280;52465;51.560;14.368;2023-03-26T03:38:42;99140.22;;;12.01;66.47
65553;BME280;52465;51.560;14.368;2023-03-26T03:41:09;99118.31;;;11.87;66.99
65553;BME280;52465;51.560;14.368;2023-03-26T03:43:35;99129.28;;;11.98;66.63
65553;BME280;52465;51.560;14.368;2023-03-26T03:46:01;99138.41;;;12.02;66.71
65553;BME280;52465;51.560;14.368;2023-03-26T03:48:29;99124.00;;;11.91;66.54
65553;BME280;52465;51.560;14.368;2023-03-26T03:50:55;99121.38;;;11.91;66.73
65553;BME280;52465;51.560;14.368;2023-03-26T03:53:22;99125.03;;;11.97;66.57
65553;BME280;52465;51.560;14.368;2023-03-26T03:55:55;99104.34;;;11.80;66.49
65553;BME280;52465;51.560;14.368;2023-03-26T03:58:23;99127.03;;;11.95;66.84
65553;BME280;52465;51.560;14.368;2023-03-26T04:00:50;99130.66;;;11.94;66.38
65553;BME280;52465;51.560;14.368;2023-03-26T04:03:17;99117.16;;;11.90;66.51
65553;BME280;52465;51.560;14.368;2023-03-26T04:08:08;99122.56;;;11.88;66.48
65553;BME280;52465;51.560;14.368;2023-03-26T04:10:36;99137.91;;;11.91;66.57
65553;BME280;52465;51.560;14.368;2023-03-26T04:13:01;99142.75;;;11.95;66.68
65553;BME280;52465;51.560;14.368;2023-03-26T04:15:27;99117.44;;;11.80;66.77
65553;BME280;52465;51.560;14.368;2023-03-26T04:17:52;99139.16;;;11.96;66.52
65553;BME280;52465;51.560;14.368;2023-03-26T04:20:23;99138.31;;;11.95;66.48
65553;BME280;52465;51.560;14.368;2023-03-26T04:22:48;99129.00;;;11.86;66.86
65553;BME280;52465;51.560;14.368;2023-03-26T04:25:14;99144.41;;;11.96;66.35
65553;BME280;52465;51.560;14.368;2023-03-26T04:27:40;99114.38;;;11.77;66.81
65553;BME280;52465;51.560;14.368;2023-03-26T04:30:14;99109.59;;;11.80;66.48
65553;BME280;52465;51.560;14.368;2023-03-26T04:32:41;99130.66;;;11.94;66.68
65553;BME280;52465;51.560;14.368;2023-03-26T04:35:11;99117.31;;;11.88;66.38
65553;BME280;52465;51.560;14.368;2023-03-26T04:37:39;99099.63;;;11.69;66.71
65553;BME280;52465;51.560;14.368;2023-03-26T04:40:17;99131.88;;;11.91;66.26
65553;BME280;52465;51.560;14.368;2023-03-26T04:42:44;99132.47;;;11.93;66.69
65553;BME280;52465;51.560;14.368;2023-03-26T04:45:14;99131.44;;;11.87;66.40
65553;BME280;52465;51.560;14.368;2023-03-26T04:47:52;99131.06;;;11.90;66.50
65553;BME280;52465;51.560;14.368;2023-03-26T04:50:19;99099.63;;;11.69;66.47
65553;BME280;52465;51.560;14.368;2023-03-26T04:52:44;99116.81;;;11.78;66.53
65553;BME280;52465;51.560;14.368;2023-03-26T04:55:20;99125.31;;;11.80;66.54
65553;BME280;52465;51.560;14.368;2023-03-26T04:57:54;99139.75;;;11.91;66.56
65553;BME280;52465;51.560;14.368;2023-03-26T05:00:20;99133.69;;;11.90;66.48
65553;BME280;52465;51.560;14.368;2023-03-26T05:02:46;99137.13;;;11.91;66.82
65553;BME280;52465;51.560;14.368;2023-03-26T05:05:15;99129.22;;;11.84;66.80
65553;BME280;52465;51.560;14.368;2023-03-26T05:07:41;99126.13;;;11.81;66.36
65553;BME280;52465;51.560;14.368;2023-03-26T05:10:10;99147.16;;;11.87;66.87
65553;BME280;52465;51.560;14.368;2023-03-26T05:12:36;99123.25;;;11.76;66.70
65553;BME280;52465;51.560;14.368;2023-03-26T05:15:02;99111.94;;;11.69;66.45
65553;BME280;52465;51.560;14.368;2023-03-26T05:17:29;99123.47;;;11.74;66.84
65553;BME280;52465;51.560;14.368;2023-03-26T05:19:55;99143.53;;;11.88;66.73
65553;BME280;52465;51.560;14.368;2023-03-26T05:22:21;99138.69;;;11.85;66.61
65553;BME280;52465;51.560;14.368;2023-03-26T05:24:47;99128.75;;;11.81;66.47
65553;BME280;52465;51.560;14.368;2023-03-26T05:27:14;99130.13;;;11.77;66.97
65553;BME280;52465;51.560;14.368;2023-03-26T05:29:43;99141.69;;;11.82;66.79
65553;BME280;52465;51.560;14.368;2023-03-26T05:32:09;99142.06;;;11.79;66.71
65553;BME280;52465;51.560;14.368;2023-03-26T05:34:35;99144.69;;;11.79;66.86
65553;BME280;52465;51.560;14.368;2023-03-26T05:37:02;99156.03;;;11.86;66.65
65553;BME280;52465;51.560;14.368;2023-03-26T05:39:31;99148.53;;;11.83;66.64
65553;BME280;52465;51.560;14.368;2023-03-26T05:41:57;99149.19;;;11.85;66.88
65553;BME280;52465;51.560;14.368;2023-03-26T05:44:22;99115.34;;;11.69;66.98
65553;BME280;52465;51.560;14.368;2023-03-26T05:46:51;99147.56;;;11.84;66.65
65553;BME280;52465;51.560;14.368;2023-03-26T05:49:16;99139.88;;;11.83;66.82
65553;BME280;52465;51.560;14.368;2023-03-26T05:51:41;99145.75;;;11.85;66.90
65553;BME280;52465;51.560;14.368;2023-03-26T05:54:10;99145.94;;;11.83;66.90
65553;BME280;52465;51.560;14.368;2023-03-26T05:56:36;99126.25;;;11.73;66.82
65553;BME280;52465;51.560;14.368;2023-03-26T05:59:01;99149.34;;;11.84;66.82
65553;BME280;52465;51.560;14.368;2023-03-26T06:01:28;99100.34;;;11.56;66.49
65553;BME280;52465;51.560;14.368;2023-03-26T06:03:53;99143.50;;;11.82;67.02
65553;BME280;52465;51.560;14.368;2023-03-26T06:06:20;99141.69;;;11.82;67.01
65553;BME280;52465;51.560;14.368;2023-03-26T06:08:49;99138.44;;;11.80;67.09
65553;BME280;52465;51.560;14.368;2023-03-26T06:11:22;99148.53;;;11.83;66.91
65553;BME280;52465;51.560;14.368;2023-03-26T06:13:48;99113.88;;;11.60;66.81
65553;BME280;52465;51.560;14.368;2023-03-26T06:16:13;99145.13;;;11.83;66.64
65553;BME280;52465;51.560;14.368;2023-03-26T06:18:42;99152.34;;;11.81;66.94
65553;BME280;52465;51.560;14.368;2023-03-26T06:21:07;99145.66;;;11.78;66.66
65553;BME280;52465;51.560;14.368;2023-03-26T06:23:33;99147.88;;;11.75;66.91
65553;BME280;52465;51.560;14.368;2023-03-26T06:25:58;99149.28;;;11.77;66.74
65553;BME280;52465;51.560;14.368;2023-03-26T06:28:25;99149.91;;;11.79;66.52
65553;BME280;52465;51.560;14.368;2023-03-26T06:33:48;99160.41;;;11.79;66.63
65553;BME280;52465;51.560;14.368;2023-03-26T06:36:33;99172.34;;;11.82;66.96
65553;BME280;52465;51.560;14.368;2023-03-26T06:38:58;99159.72;;;11.71;67.01
65553;BME280;52465;51.560;14.368;2023-03-26T06:41:27;99165.66;;;11.79;66.72
65553;BME280;52465;51.560;14.368;2023-03-26T06:43:53;99163.19;;;11.78;66.73
65553;BME280;52465;51.560;14.368;2023-03-26T06:46:20;99135.03;;;11.58;67.01
65553;BME280;52465;51.560;14.368;2023-03-26T06:48:45;99167.63;;;11.77;66.86
65553;BME280;52465;51.560;14.368;2023-03-26T06:51:11;99169.25;;;11.78;66.49
65553;BME280;52465;51.560;14.368;2023-03-26T06:53:36;99154.28;;;11.72;67.00
65553;BME280;52465;51.560;14.368;2023-03-26T06:56:02;99143.56;;;11.67;66.95
65553;BME280;52465;51.560;14.368;2023-03-26T06:58:28;99170.25;;;11.77;66.96
65553;BME280;52465;51.560;14.368;2023-03-26T07:00:54;99144.25;;;11.76;66.73
65553;BME280;52465;51.560;14.368;2023-03-26T07:03:20;99152.72;;;11.78;66.65
65553;BME280;52465;51.560;14.368;2023-03-26T07:05:47;99145.03;;;11.76;66.75
65553;BME280;52465;51.560;14.368;2023-03-26T07:08:14;99139.00;;;11.76;66.87
65553;BME280;52465;51.560;14.368;2023-03-26T07:10:41;99135.94;;;11.72;66.69
65553;BME280;52465;51.560;14.368;2023-03-26T07:13:06;99146.25;;;11.74;66.65
65553;BME280;52465;51.560;14.368;2023-03-26T07:15:33;99145.63;;;11.72;66.51
65553;BME280;52465;51.560;14.368;2023-03-26T07:17:58;99137.34;;;11.68;67.09
65553;BME280;52465;51.560;14.368;2023-03-26T07:20:24;99139.38;;;11.73;66.87
65553;BME280;52465;51.560;14.368;2023-03-26T07:22:50;99138.63;;;11.79;66.62
65553;BME280;52465;51.560;14.368;2023-03-26T07:25:17;99124.22;;;11.68;66.58
65553;BME280;52465;51.560;14.368;2023-03-26T07:36:06;99142.88;;;11.80;66.57
65553;BME280;52465;51.560;14.368;2023-03-26T07:38:56;99129.06;;;11.71;66.75
65553;BME280;52465;51.560;14.368;2023-03-26T07:41:54;99131.56;;;11.79;66.77
65553;BME280;52465;51.560;14.368;2023-03-26T07:44:35;99142.06;;;11.79;66.62
65553;BME280;52465;51.560;14.368;2023-03-26T07:49:39;99127.25;;;11.72;66.91
65553;BME280;52465;51.560;14.368;2023-03-26T07:52:09;99132.34;;;11.73;66.67
65553;BME280;52465;51.560;14.368;2023-03-26T07:54:35;99111.22;;;11.53;66.53
65553;BME280;52465;51.560;14.368;2023-03-26T07:57:06;99136.00;;;11.79;66.59
65553;BME280;52465;51.560;14.368;2023-03-26T07:59:41;99121.22;;;11.71;66.58
65553;BME280;52465;51.560;14.368;2023-03-26T08:05:03;99135.16;;;11.78;66.56
65553;BME280;52465;51.560;14.368;2023-03-26T08:10:26;99138.44;;;11.80;66.49
65553;BME280;52465;51.560;14.368;2023-03-26T08:13:23;99138.63;;;11.79;66.78
65553;BME280;52465;51.560;14.368;2023-03-26T08:15:58;99111.94;;;11.69;66.31
65553;BME280;52465;51.560;14.368;2023-03-26T08:18:42;99135.16;;;11.78;66.49
65553;BME280;52465;51.560;14.368;2023-03-26T08:21:22;99130.94;;;11.77;66.78
65553;BME280;52465;51.560;14.368;2023-03-26T08:24:12;99113.75;;;11.68;66.41
65553;BME280;52465;51.560;14.368;2023-03-26T08:29:34;99128.94;;;11.79;66.69
65553;BME280;52465;51.560;14.368;2023-03-26T08:32:04;99132.53;;;11.78;66.54
65553;BME280;52465;51.560;14.368;2023-03-26T08:34:34;99117.59;;;11.72;66.79
65553;BME280;52465;51.560;14.368;2023-03-26T08:36:59;99127.28;;;11.78;66.85
65553;BME280;52465;51.560;14.368;2023-03-26T08:39:25;99109.91;;;11.71;66.53
65553;BME280;52465;51.560;14.368;2023-03-26T08:45:23;99116.78;;;11.72;66.36
65553;BME280;52465;51.560;14.368;2023-03-26T08:48:27;99128.94;;;11.79;66.50
65553;BME280;52465;51.560;14.368;2023-03-26T08:51:17;99129.75;;;11.80;66.42
65553;BME280;52465;51.560;14.368;2023-03-26T08:54:04;99127.13;;;11.80;66.19
65553;BME280;52465;51.560;14.368;2023-03-26T08:56:52;99122.88;;;11.79;66.27
65553;BME280;52465;51.560;14.368;2023-03-26T09:00:00;99123.69;;;11.79;66.29
65553;BME280;52465;51.560;14.368;2023-03-26T09:02:58;99127.94;;;11.80;66.25
65553;BME280;52465;51.560;14.368;2023-03-26T09:05:48;99127.94;;;11.80;66.28
65553;BME280;52465;51.560;14.368;2023-03-26T09:08:44;99116.19;;;11.76;65.98
65553;BME280;52465;51.560;14.368;2023-03-26T09:28:58;99115.59;;;11.74;66.09
65553;BME280;52465;51.560;14.368;2023-03-26T09:32:02;99123.50;;;11.81;66.18
65553;BME280;52465;51.560;14.368;2023-03-26T09:40:16;99116.47;;;11.81;66.23
65553;BME280;52465;51.560;14.368;2023-03-26T09:48:12;99112.84;;;11.82;65.92
65553;BME280;52465;51.560;14.368;2023-03-26T09:56:39;99089.94;;;11.70;66.22
65553;BME280;52465;51.560;14.368;2023-03-26T09:59:25;99108.59;;;11.81;66.14
65553;BME280;52465;51.560;14.368;2023-03-26T10:02:03;99103.34;;;11.81;65.98
65553;BME280;52465;51.560;14.368;2023-03-26T10:13:15;99105.78;;;11.83;66.33
65553;BME280;52465;51.560;14.368;2023-03-26T10:16:06;99103.16;;;11.83;66.07
65553;BME280;52465;51.560;14.368;2023-03-26T10:18:48;99080.28;;;11.70;66.31
65553;BME280;52465;51.560;14.368;2023-03-26T10:21:45;99059.88;;;11.65;66.00
65553;BME280;52465;51.560;14.368;2023-03-26T10:27:12;99085.44;;;11.85;66.15
65553;BME280;52465;51.560;14.368;2023-03-26T10:32:41;99083.78;;;11.84;66.36
65553;BME280;52465;51.560;14.368;2023-03-26T10:38:14;99079.38;;;11.84;66.01
65553;BME280;52465;51.560;14.368;2023-03-26T10:40:50;99080.81;;;11.87;66.27
65553;BME280;52465;51.560;14.368;2023-03-26T10:52:05;99080.00;;;11.86;66.16
65553;BME280;52465;51.560;14.368;2023-03-26T10:55:02;99088.47;;;11.88;66.33
65553;BME280;52465;51.560;14.368;2023-03-26T10:57:39;99062.53;;;11.72;65.95
65553;BME280;52465;51.560;14.368;2023-03-26T11:00:15;99095.53;;;11.88;66.23
65553;BME280;52465;51.560;14.368;2023-03-26T11:02:49;99079.69;;;11.75;66.27
65553;BME280;52465;51.560;14.368;2023-03-26T11:08:11;99080.81;;;11.87;66.10
65553;BME280;52465;51.560;14.368;2023-03-26T11:13:54;99066.69;;;11.88;66.20
65553;BME280;52465;51.560;14.368;2023-03-26T11:19:01;99047.91;;;11.84;66.06
65553;BME280;52465;51.560;14.368;2023-03-26T11:21:35;99049.13;;;11.88;66.32
65553;BME280;52465;51.560;14.368;2023-03-26T11:26:54;99028.50;;;11.79;66.35
65553;BME280;52465;51.560;14.368;2023-03-26T11:32:04;99037.63;;;11.89;66.07
65553;BME280;52465;51.560;14.368;2023-03-26T11:34:41;98987.69;;;11.70;66.46
65553;BME280;52465;51.560;14.368;2023-03-26T11:37:14;99017.47;;;11.90;66.08
65553;BME280;52465;51.560;14.368;2023-03-26T11:39:49;99011.84;;;11.93;66.23
65553;BME280;52465;51.560;14.368;2023-03-26T11:42:20;98985.72;;;11.78;66.36
65553;BME280;52465;51.560;14.368;2023-03-26T11:45:04;98982.53;;;11.83;66.09
65553;BME280;52465;51.560;14.368;2023-03-26T11:47:53;98996.91;;;11.94;66.10
65553;BME280;52465;51.560;14.368;2023-03-26T11:50:28;98980.13;;;11.88;66.29
65553;BME280;52465;51.560;14.368;2023-03-26T11:53:00;98969.44;;;11.83;66.09
65553;BME280;52465;51.560;14.368;2023-03-26T11:55:27;98983.78;;;11.94;66.01
65553;BME280;52465;51.560;14.368;2023-03-26T11:57:54;98969.28;;;11.91;66.12
65553;BME280;52465;51.560;14.368;2023-03-26T12:00:22;98946.59;;;11.77;66.00
65553;BME280;52465;51.560;14.368;2023-03-26T12:02:55;98976.72;;;11.94;66.05
65553;BME280;52465;51.560;14.368;2023-03-26T12:05:24;98962.81;;;11.94;65.94
65553;BME280;52465;51.560;14.368;2023-03-26T12:07:57;98979.38;;;12.01;66.20
65553;BME280;52465;51.560;14.368;2023-03-26T12:10:34;98974.13;;;12.01;65.87
65553;BME280;52465;51.560;14.368;2023-03-26T12:13:13;98947.44;;;11.84;66.31
65553;BME280;52465;51.560;14.368;2023-03-26T12:15:42;98976.38;;;12.04;66.18
65553;BME280;52465;51.560;14.368;2023-03-26T12:18:23;98941.59;;;11.82;66.33
65553;BME280;52465;51.560;14.368;2023-03-26T12:23:59;98968.28;;;12.05;66.05
65553;BME280;52465;51.560;14.368;2023-03-26T12:27:20;98953.56;;;11.98;66.29
65553;BME280;52465;51.560;14.368;2023-03-26T12:29:50;98964.47;;;12.08;66.38
65553;BME280;52465;51.560;14.368;2023-03-26T12:32:17;98938.59;;;11.91;65.88
65553;BME280;52465;51.560;14.368;2023-03-26T12:34:42;98956.38;;;12.03;66.11
65553;BME280;52465;51.560;14.368;2023-03-26T12:37:36;98960.84;;;12.09;66.02
65553;BME280;52465;51.560;14.368;2023-03-26T12:40:08;98965.06;;;12.10;66.18
65553;BME280;52465;51.560;14.368;2023-03-26T12:43:00;98962.66;;;12.08;66.27
65553;BME280;52465;51.560;14.368;2023-03-26T12:45:31;98947.91;;;12.01;65.82
65553;BME280;52465;51.560;14.368;2023-03-26T12:48:01;98933.59;;;11.97;66.02
65553;BME280;52465;51.560;14.368;2023-03-26T12:50:35;98971.56;;;12.14;66.18
65553;BME280;52465;51.560;14.368;2023-03-26T12:53:36;98957.44;;;12.15;66.08
65553;BME280;52465;51.560;14.368;2023-03-26T12:56:15;98921.47;;;11.96;66.01
65553;BME280;52465;51.560;14.368;2023-03-26T12:59:27;98950.16;;;12.17;66.05
65553;BME280;52465;51.560;14.368;2023-03-26T13:07:22;98956.41;;;12.23;65.78
65553;BME280;52465;51.560;14.368;2023-03-26T13:13:02;98945.13;;;12.22;65.97
65553;BME280;52465;51.560;14.368;2023-03-26T13:15:36;98920.28;;;12.05;65.84
65553;BME280;52465;51.560;14.368;2023-03-26T13:18:06;98942.13;;;12.25;65.66
65553;BME280;52465;51.560;14.368;2023-03-26T13:21:00;98950.78;;;12.26;65.94
65553;BME280;52465;51.560;14.368;2023-03-26T13:23:40;98948.97;;;12.26;65.97
65553;BME280;52465;51.560;14.368;2023-03-26T13:29:21;98936.88;;;12.25;65.83
65553;BME280;52465;51.560;14.368;2023-03-26T13:32:04;98935.25;;;12.24;65.71
65553;BME280;52465;51.560;14.368;2023-03-26T13:40:07;98937.06;;;12.24;65.78
65553;BME280;52465;51.560;14.368;2023-03-26T13:46:01;98939.69;;;12.24;65.88
65553;BME280;52465;51.560;14.368;2023-03-26T13:51:09;98924.94;;;12.23;66.05
65553;BME280;52465;51.560;14.368;2023-03-26T13:53:44;98931.81;;;12.24;65.94
65553;BME280;52465;51.560;14.368;2023-03-26T13:56:42;98907.56;;;12.08;65.58
65553;BME280;52465;51.560;14.368;2023-03-26T13:59:39;98925.75;;;12.23;65.77
65553;BME280;52465;51.560;14.368;2023-03-26T14:02:39;98903.13;;;12.22;65.82
65553;BME280;52465;51.560;14.368;2023-03-26T14:07:40;98909.19;;;12.16;65.40
65553;BME280;52465;51.560;14.368;2023-03-26T14:12:58;98908.00;;;12.25;65.93
65553;BME280;52465;51.560;14.368;2023-03-26T14:15:46;98908.81;;;12.26;65.83
65553;BME280;52465;51.560;14.368;2023-03-26T14:18:37;98904.38;;;12.26;65.75
65553;BME280;52465;51.560;14.368;2023-03-26T14:21:09;98901.75;;;12.26;65.57
65553;BME280;52465;51.560;14.368;2023-03-26T14:24:04;98897.50;;;12.25;65.85
65553;BME280;52465;51.560;14.368;2023-03-26T14:29:30;98898.69;;;12.23;65.53
65553;BME280;52465;51.560;14.368;2023-03-26T14:32:05;98902.75;;;12.25;65.69
65553;BME280;52465;51.560;14.368;2023-03-26T14:34:55;98887.00;;;12.18;65.65
65553;BME280;52465;51.560;14.368;2023-03-26T14:51:21;98890.03;;;12.29;65.61
65553;BME280;52465;51.560;14.368;2023-03-26T14:53:53;98877.72;;;12.23;65.83
65553;BME280;52465;51.560;14.368;2023-03-26T14:56:51;98880.34;;;12.29;65.58
65553;BME280;52465;51.560;14.368;2023-03-26T15:00:04;98875.91;;;12.30;65.88
65553;BME280;52465;51.560;14.368;2023-03-26T15:11:28;98860.16;;;12.30;65.98
65553;BME280;52465;51.560;14.368;2023-03-26T15:14:16;98860.16;;;12.30;65.74
65553;BME280;52465;51.560;14.368;2023-03-26T15:17:12;98854.13;;;12.29;65.90
65553;BME280;52465;51.560;14.368;2023-03-26T15:28:58;98856.75;;;12.29;65.63
65553;BME280;52465;51.560;14.368;2023-03-26T15:31:34;98851.50;;;12.29;65.79
65553;BME280;52465;51.560;14.368;2023-03-26T15:43:10;98843.63;;;12.29;65.83
65553;BME280;52465;51.560;14.368;2023-03-26T15:45:44;98844.44;;;12.30;66.06
65553;BME280;52465;51.560;14.368;2023-03-26T15:48:33;98847.22;;;12.28;66.07
65553;BME280;52465;51.560;14.368;2023-03-26T15:51:12;98828.88;;;12.15;66.04
65553;BME280;52465;51.560;14.368;2023-03-26T15:54:03;98844.44;;;12.30;66.02
65553;BME280;52465;51.560;14.368;2023-03-26T15:56:41;98843.63;;;12.29;65.96
65553;BME280;52465;51.560;14.368;2023-03-26T15:59:28;98829.28;;;12.25;66.20
65553;BME280;52465;51.560;14.368;2023-03-26T16:07:34;98841.00;;;12.29;65.99
65553;BME280;52465;51.560;14.368;2023-03-26T16:10:33;98839.19;;;12.30;65.39
65553;BME280;52465;51.560;14.368;2023-03-26T16:18:31;98843.63;;;12.29;66.08
65553;BME280;52465;51.560;14.368;2023-03-26T16:33:49;98848.03;;;12.29;65.75
65553;BME280;52465;51.560;14.368;2023-03-26T16:36:35;98847.06;;;12.30;65.73
65553;BME280;52465;51.560;14.368;2023-03-26T16:41:30;98846.84;;;12.31;66.04
65553;BME280;52465;51.560;14.368;2023-03-26T16:46:47;98843.63;;;12.29;65.90
65553;BME280;52465;51.560;14.368;2023-03-26T16:52:28;98834.91;;;12.22;66.16
65553;BME280;52465;51.560;14.368;2023-03-26T16:55:19;98835.75;;;12.29;66.31
65553;BME280;52465;51.560;14.368;2023-03-26T16:58:01;98846.25;;;12.29;66.07
65553;BME280;52465;51.560;14.368;2023-03-26T17:00:47;98846.25;;;12.29;65.83
65553;BME280;52465;51.560;14.368;2023-03-26T17:08:30;98826.84;;;12.17;65.99
65553;BME280;52465;51.560;14.368;2023-03-26T17:11:25;98852.69;;;12.27;66.22
65553;BME280;52465;51.560;14.368;2023-03-26T17:14:24;98859.75;;;12.26;66.24
65553;BME280;52465;51.560;14.368;2023-03-26T17:19:50;98888.63;;;12.26;66.32
65553;BME280;52465;51.560;14.368;2023-03-26T17:22:43;98895.69;;;12.26;66.18
65553;BME280;52465;51.560;14.368;2023-03-26T17:25:21;98895.69;;;12.26;65.92
65553;BME280;52465;51.560;14.368;2023-03-26T17:33:39;98894.84;;;12.12;66.19